Time;durP1;ratioP1;P1;durP2;ratioP2;P2;SDS_P1;SDS_P2;PMS_P1;PMS_P2;Temp;Humidity;BMP_temperature;BMP_pressure;BME280_temperature;BME280_humidity;BME280_pressure;Samples;Min_cycle;Max_cycle;Signal;HPM_P1;HPM_P2
2024/03/13 00:01:00;;;;;;;16.10;13.27;;;10.40;99.90;;;;;;5086706;28;20233;-75
2024/03/13 00:03:28;;;;;;;15.73;13.40;;;10.40;99.90;;;;;;5086140;28;20214;-75
2024/03/13 00:05:55;;;;;;;15.33;12.93;;;10.50;99.90;;;;;;5086780;28;20195;-75
2024/03/13 00:08:22;;;;;;;15.33;13.13;;;10.50;99.90;;;;;;5085587;28;20964;-75
2024/03/13 00:10:50;;;;;;;16.13;13.30;;;10.50;99.90;;;;;;5086597;28;20206;-74
2024/03/13 00:13:19;;;;;;;17.37;13.77;;;10.50;99.90;;;;;;5086988;28;20234;-74
2024/03/13 00:15:46;;;;;;;16.03;13.77;;;10.40;99.90;;;;;;5090146;28;20203;-73
2024/03/13 00:18:14;;;;;;;16.50;12.83;;;10.30;99.90;;;;;;5090360;28;20209;-72
2024/03/13 00:20:42;;;;;;;22.77;13.10;;;10.40;99.90;;;;;;5089968;28;20222;-73
2024/03/13 00:23:09;;;;;;;15.30;13.13;;;10.40;99.90;;;;;;5089802;28;20213;-73
2024/03/13 00:25:36;;;;;;;16.10;13.63;;;10.40;99.90;;;;;;5086652;28;20203;-73
2024/03/13 00:28:03;;;;;;;17.60;13.90;;;10.50;99.90;;;;;;5089661;28;20207;-74
2024/03/13 00:30:32;;;;;;;17.90;13.87;;;10.40;99.90;;;;;;5089791;28;20613;-74
2024/03/13 00:32:59;;;;;;;15.80;13.90;;;10.50;99.90;;;;;;5090319;28;20737;-75
2024/03/13 00:35:26;;;;;;;16.43;13.10;;;10.50;99.90;;;;;;5089657;28;20710;-73
2024/03/13 00:37:52;;;;;;;15.17;12.90;;;10.40;99.90;;;;;;5090042;28;20984;-73
2024/03/13 00:40:19;;;;;;;16.53;13.47;;;10.40;99.90;;;;;;5089649;28;20528;-74
2024/03/13 00:42:47;;;;;;;14.73;12.87;;;10.40;99.90;;;;;;5089936;28;20301;-73
2024/03/13 00:45:13;;;;;;;14.37;12.80;;;10.30;99.90;;;;;;5089843;28;20207;-73
2024/03/13 00:47:43;;;;;;;17.60;13.63;;;10.20;99.90;;;;;;5089941;28;20245;-74
2024/03/13 00:50:12;;;;;;;17.30;13.50;;;10.30;99.90;;;;;;5089802;28;20215;-73
2024/03/13 00:52:39;;;;;;;18.73;13.40;;;10.30;99.90;;;;;;5089321;28;20693;-74
2024/03/13 00:55:10;;;;;;;15.73;13.07;;;10.30;99.90;;;;;;5089347;28;20302;-74
2024/03/13 00:57:36;;;;;;;17.30;13.87;;;10.30;99.90;;;;;;5089489;28;20684;-73
2024/03/13 01:00:04;;;;;;;16.27;13.33;;;10.30;99.90;;;;;;5089279;28;20207;-73
2024/03/13 01:02:33;;;;;;;15.27;12.87;;;10.40;99.90;;;;;;5089485;28;20206;-74
2024/03/13 01:05:01;;;;;;;16.07;13.37;;;10.30;99.90;;;;;;5089579;28;20636;-74
2024/03/13 01:07:28;;;;;;;15.77;13.47;;;10.30;99.90;;;;;;5089527;28;20292;-74
2024/03/13 01:09:55;;;;;;;17.30;13.77;;;10.40;99.90;;;;;;5089692;28;20231;-74
2024/03/13 01:12:22;;;;;;;15.33;12.90;;;10.40;99.90;;;;;;5089439;28;20277;-74
2024/03/13 01:14:49;;;;;;;15.10;12.90;;;10.40;99.90;;;;;;5089009;28;20613;-75
2024/03/13 01:17:17;;;;;;;15.53;13.57;;;10.50;99.90;;;;;;5089302;28;20914;-74
2024/03/13 01:19:44;;;;;;;17.20;13.80;;;10.40;99.90;;;;;;5089585;28;20230;-75
2024/03/13 01:22:15;;;;;;;15.27;13.63;;;10.40;99.90;;;;;;5087804;28;20221;-72
2024/03/13 01:24:42;;;;;;;14.80;13.20;;;10.50;99.90;;;;;;5068798;28;20195;-72
2024/03/13 01:27:10;;;;;;;15.30;13.47;;;10.50;99.90;;;;;;5083496;28;20199;-72
2024/03/13 01:29:38;;;;;;;17.17;13.33;;;10.50;99.90;;;;;;5088960;28;20230;-73
2024/03/13 01:32:05;;;;;;;16.23;14.13;;;10.50;99.90;;;;;;5089015;28;20272;-73
2024/03/13 01:34:32;;;;;;;17.63;14.07;;;10.50;99.90;;;;;;5089151;28;20302;-74
2024/03/13 01:39:44;;;;;;;15.57;13.47;;;10.50;99.90;;;;;;5047109;28;20206;-74
2024/03/13 01:56:21;;;;;;;18.53;14.30;;;10.30;99.90;;;;;;5088569;28;20702;-75
2024/03/13 01:58:51;;;;;;;15.90;13.53;;;10.30;99.90;;;;;;5089148;28;20302;-75
2024/03/13 02:04:03;;;;;;;16.40;14.03;;;10.30;99.90;;;;;;5088449;28;20213;-76
2024/03/13 02:06:31;;;;;;;17.37;14.83;;;10.40;99.90;;;;;;5088034;28;20206;-76
2024/03/13 02:08:58;;;;;;;18.47;14.90;;;10.40;99.90;;;;;;5088662;28;20203;-74
2024/03/13 02:11:27;;;;;;;19.00;15.17;;;10.40;99.90;;;;;;5088340;28;20634;-75
2024/03/13 02:14:02;;;;;;;16.70;14.40;;;10.40;99.90;;;;;;5087994;28;20346;-74
2024/03/13 02:16:30;;;;;;;19.57;15.47;;;10.40;99.90;;;;;;5088502;28;20698;-74
2024/03/13 02:18:58;;;;;;;18.23;15.07;;;10.40;99.90;;;;;;5087958;28;20206;-74
2024/03/13 02:21:25;;;;;;;16.63;14.77;;;10.40;99.90;;;;;;5088130;28;20206;-74
2024/03/13 02:23:52;;;;;;;16.33;14.50;;;10.40;99.90;;;;;;5088096;28;20207;-74
2024/03/13 02:26:19;;;;;;;17.03;15.17;;;10.30;99.90;;;;;;5054005;28;20293;-75
2024/03/13 02:28:46;;;;;;;19.07;16.17;;;10.20;99.90;;;;;;5053872;28;20578;-75
2024/03/13 02:31:13;;;;;;;18.53;15.83;;;10.10;99.90;;;;;;5053716;28;20736;-75
2024/03/13 02:33:40;;;;;;;17.80;15.03;;;10.10;99.90;;;;;;5052289;28;20771;-76
2024/03/13 02:36:07;;;;;;;17.57;15.27;;;9.90;99.90;;;;;;5053314;28;20302;-75
2024/03/13 02:38:34;;;;;;;19.13;15.33;;;9.90;99.90;;;;;;5053654;28;20249;-76
2024/03/13 02:41:02;;;;;;;19.70;15.77;;;9.90;99.90;;;;;;5053227;28;20210;-76
2024/03/13 02:43:30;;;;;;;18.27;15.37;;;10.00;99.90;;;;;;5053573;28;20234;-76
2024/03/13 02:45:57;;;;;;;19.63;15.90;;;10.00;99.90;;;;;;5053941;28;20207;-76
2024/03/13 02:48:24;;;;;;;17.93;15.23;;;10.10;99.90;;;;;;5052653;28;20290;-75
2024/03/13 02:50:51;;;;;;;19.90;16.03;;;10.10;99.90;;;;;;5053490;28;20202;-74
2024/03/13 02:53:18;;;;;;;18.17;15.00;;;10.10;99.90;;;;;;5049245;28;20325;-73
2024/03/13 02:55:46;;;;;;;20.33;16.87;;;10.00;99.90;;;;;;5032689;28;20210;-72
2024/03/13 02:58:13;;;;;;;20.47;17.07;;;10.00;99.90;;;;;;5032977;28;20261;-72
2024/03/13 03:00:40;;;;;;;20.17;16.20;;;9.70;99.90;;;;;;5047761;28;20281;-74
2024/03/13 03:03:11;;;;;;;19.50;16.03;;;9.70;99.90;;;;;;5052773;28;20234;-75
2024/03/13 03:05:38;;;;;;;18.20;16.07;;;9.70;99.90;;;;;;5052502;28;20195;-74
2024/03/13 03:08:07;;;;;;;20.53;15.87;;;9.80;99.90;;;;;;5052374;28;20199;-74
2024/03/13 03:10:33;;;;;;;18.90;15.90;;;9.80;99.90;;;;;;5060758;28;20260;-74
2024/03/13 03:13:00;;;;;;;19.90;15.73;;;9.80;99.90;;;;;;5061007;28;20282;-74
2024/03/13 03:15:29;;;;;;;19.53;15.83;;;9.80;99.90;;;;;;5049290;28;20206;-76
2024/03/13 03:17:57;;;;;;;20.80;16.17;;;9.70;99.90;;;;;;5053105;28;20686;-74
2024/03/13 03:20:23;;;;;;;19.67;15.97;;;9.70;99.90;;;;;;5052817;28;20211;-75
2024/03/13 03:22:50;;;;;;;18.97;16.03;;;9.60;99.90;;;;;;5049080;28;20307;-73
2024/03/13 03:25:17;;;;;;;20.53;15.17;;;9.60;99.90;;;;;;5032198;28;20203;-72
2024/03/13 03:27:44;;;;;;;20.93;16.20;;;9.60;99.90;;;;;;5037918;28;20206;-73
2024/03/13 03:30:12;;;;;;;20.77;16.53;;;9.50;99.90;;;;;;5048264;28;20241;-74
2024/03/13 03:32:39;;;;;;;21.07;17.00;;;9.40;99.90;;;;;;5048798;28;20221;-73
2024/03/13 03:35:07;;;;;;;20.57;16.33;;;9.30;99.90;;;;;;5048641;28;20210;-73
2024/03/13 03:37:34;;;;;;;20.57;16.67;;;9.30;99.90;;;;;;5048215;28;20550;-74
2024/03/13 03:40:02;;;;;;;20.47;16.57;;;9.30;99.90;;;;;;5047811;28;20234;-74
2024/03/13 03:42:29;;;;;;;19.90;16.37;;;9.20;99.90;;;;;;5048665;28;20194;-73
2024/03/13 03:44:56;;;;;;;21.83;17.00;;;9.30;99.90;;;;;;5048452;28;20206;-74
2024/03/13 03:47:23;;;;;;;20.27;16.07;;;9.30;99.90;;;;;;5052177;28;20298;-73
2024/03/13 03:49:50;;;;;;;17.27;15.27;;;9.40;99.90;;;;;;5053662;28;20661;-74
2024/03/13 03:52:17;;;;;;;19.77;15.93;;;9.40;99.90;;;;;;5070641;28;20230;-74
2024/03/13 03:54:44;;;;;;;19.57;15.27;;;9.40;99.90;;;;;;5070853;28;20222;-74
2024/03/13 03:57:11;;;;;;;20.53;16.33;;;9.40;99.90;;;;;;5068035;28;20323;-74
2024/03/13 03:59:38;;;;;;;19.70;16.30;;;9.40;99.90;;;;;;5053509;28;20294;-74
2024/03/13 04:02:05;;;;;;;22.27;16.57;;;9.20;99.90;;;;;;5053183;28;20195;-73
2024/03/13 04:04:33;;;;;;;21.37;16.63;;;9.20;99.90;;;;;;5055714;28;20289;-73
2024/03/13 04:07:00;;;;;;;20.70;16.93;;;9.00;99.90;;;;;;5055433;28;20207;-73
2024/03/13 04:09:27;;;;;;;20.73;16.40;;;8.90;99.90;;;;;;5054554;28;20271;-73
2024/03/13 04:11:54;;;;;;;20.10;16.03;;;8.90;99.90;;;;;;5052566;28;20203;-73
2024/03/13 04:14:21;;;;;;;20.90;16.60;;;8.90;99.90;;;;;;5054741;28;20246;-74
2024/03/13 04:16:49;;;;;;;19.47;15.40;;;8.80;99.90;;;;;;5056325;28;20301;-74
2024/03/13 04:19:16;;;;;;;20.07;16.27;;;8.90;99.90;;;;;;5055918;28;20213;-74
2024/03/13 04:21:45;;;;;;;19.97;15.80;;;9.00;99.90;;;;;;5055799;28;20295;-73
2024/03/13 04:24:12;;;;;;;23.43;16.77;;;8.90;99.90;;;;;;5055923;28;20297;-74
2024/03/13 04:26:40;;;;;;;18.63;15.83;;;8.90;99.90;;;;;;5055885;28;20298;-73
2024/03/13 04:29:07;;;;;;;19.93;16.40;;;8.90;99.90;;;;;;5056248;28;20305;-73
2024/03/13 04:31:34;;;;;;;20.37;15.37;;;8.90;99.90;;;;;;5055834;28;20211;-74
2024/03/13 04:34:01;;;;;;;19.10;15.40;;;8.90;99.90;;;;;;5055763;28;20266;-71
2024/03/13 04:36:28;;;;;;;21.13;16.43;;;9.00;99.90;;;;;;5055191;28;20250;-72
2024/03/13 04:38:55;;;;;;;22.53;17.53;;;9.00;99.90;;;;;;5055565;28;20764;-76
2024/03/13 04:41:22;;;;;;;21.60;17.00;;;8.90;99.90;;;;;;5055238;28;20314;-73
2024/03/13 04:43:49;;;;;;;21.17;16.10;;;8.90;99.90;;;;;;5055813;28;20227;-73
2024/03/13 04:46:16;;;;;;;20.50;16.30;;;8.90;99.90;;;;;;5055249;28;20198;-72
2024/03/13 04:48:44;;;;;;;23.80;17.77;;;8.90;99.90;;;;;;5055494;28;20617;-73
2024/03/13 04:51:11;;;;;;;22.03;17.33;;;8.90;99.90;;;;;;5055378;28;20227;-73
2024/03/13 04:53:38;;;;;;;24.40;17.47;;;8.80;99.90;;;;;;5047863;28;20234;-73
2024/03/13 04:56:05;;;;;;;21.20;16.60;;;8.80;99.90;;;;;;5055045;28;20260;-73
2024/03/13 04:58:32;;;;;;;20.63;16.20;;;8.70;99.90;;;;;;5054469;28;20289;-73
2024/03/13 05:00:59;;;;;;;18.57;16.03;;;8.70;99.90;;;;;;5055377;28;20302;-72
2024/03/13 05:03:26;;;;;;;22.70;15.83;;;8.70;99.90;;;;;;5055183;28;20365;-73
2024/03/13 05:05:53;;;;;;;21.67;16.67;;;8.70;99.90;;;;;;5055057;28;20299;-73
2024/03/13 05:08:20;;;;;;;19.93;15.47;;;8.70;99.90;;;;;;5050841;28;20925;-73
2024/03/13 05:10:47;;;;;;;18.97;15.80;;;8.70;99.90;;;;;;5034553;28;20322;-73
2024/03/13 05:13:15;;;;;;;23.70;16.43;;;8.70;99.90;;;;;;5034424;28;20326;-73
2024/03/13 05:15:43;;;;;;;19.40;15.07;;;8.70;99.90;;;;;;5035202;28;20215;-73
2024/03/13 05:18:10;;;;;;;21.17;16.53;;;8.70;99.90;;;;;;5034752;28;20273;-73
2024/03/13 05:20:40;;;;;;;20.40;16.17;;;8.70;99.90;;;;;;5034670;28;20211;-73
2024/03/13 05:23:08;;;;;;;21.30;15.67;;;8.60;99.90;;;;;;5041825;28;20422;-73
2024/03/13 05:25:35;;;;;;;19.13;15.13;;;8.70;99.90;;;;;;5054557;28;20673;-73
2024/03/13 05:28:03;;;;;;;21.17;15.23;;;8.70;99.90;;;;;;5054499;28;20248;-73
2024/03/13 05:30:29;;;;;;;22.60;15.80;;;8.70;99.90;;;;;;5054006;28;20239;-74
2024/03/13 05:32:57;;;;;;;20.93;16.50;;;8.60;99.90;;;;;;5054415;28;20203;-74
2024/03/13 05:35:27;;;;;;;22.33;16.70;;;8.60;99.90;;;;;;5054438;28;20253;-74
2024/03/13 05:37:54;;;;;;;20.83;16.00;;;8.60;99.90;;;;;;5054748;28;20298;-74
2024/03/13 05:40:21;;;;;;;20.30;16.10;;;8.60;99.90;;;;;;5054138;28;20624;-74
2024/03/13 05:42:48;;;;;;;19.57;15.93;;;8.50;99.90;;;;;;5054000;28;20213;-74
2024/03/13 05:45:15;;;;;;;20.07;15.53;;;8.50;99.90;;;;;;5053429;28;20309;-74
2024/03/13 05:47:42;;;;;;;22.07;16.50;;;8.50;99.90;;;;;;5053793;28;20795;-74
2024/03/13 05:50:10;;;;;;;24.43;16.87;;;8.40;99.90;;;;;;5053843;28;20207;-74
2024/03/13 05:52:36;;;;;;;24.60;17.00;;;8.40;99.90;;;;;;5050862;28;20237;-74
2024/03/13 05:55:04;;;;;;;22.10;16.90;;;8.40;99.90;;;;;;5068287;28;20325;-74
2024/03/13 05:57:31;;;;;;;22.03;16.37;;;8.40;99.90;;;;;;5053646;28;20207;-74
2024/03/13 05:59:58;;;;;;;21.90;16.77;;;8.40;99.90;;;;;;5053634;28;20287;-74
2024/03/13 06:02:25;;;;;;;22.40;16.47;;;8.50;99.90;;;;;;5051310;28;20219;-74
2024/03/13 06:05:02;;;;;;;22.10;16.83;;;8.40;99.90;;;;;;5065892;28;20215;-74
2024/03/13 06:07:29;;;;;;;21.03;16.67;;;8.40;99.90;;;;;;5056530;28;20202;-74
2024/03/13 06:09:56;;;;;;;21.00;16.90;;;8.50;99.90;;;;;;5053010;28;20673;-74
2024/03/13 06:12:23;;;;;;;21.50;16.20;;;8.50;99.90;;;;;;5053700;28;20217;-74
2024/03/13 06:14:52;;;;;;;25.17;16.47;;;8.50;99.90;;;;;;5053088;28;20333;-74
2024/03/13 06:17:19;;;;;;;22.60;17.17;;;8.50;99.90;;;;;;5054073;28;20224;-74
2024/03/13 06:19:46;;;;;;;20.87;16.40;;;8.50;99.90;;;;;;5053064;28;20646;-72
2024/03/13 06:22:14;;;;;;;20.37;15.10;;;8.50;99.90;;;;;;5053348;28;20313;-72
2024/03/13 06:24:41;;;;;;;24.30;17.10;;;8.60;99.90;;;;;;5033159;28;20211;-72
2024/03/13 06:27:15;;;;;;;21.07;15.73;;;8.70;99.90;;;;;;5033160;28;20208;-72
2024/03/13 06:29:57;;;;;;;20.33;15.07;;;8.70;99.90;;;;;;5034986;28;20724;-73
2024/03/13 06:32:24;;;;;;;20.13;15.13;;;8.70;99.90;;;;;;5037371;28;20196;-72
2024/03/13 06:34:52;;;;;;;20.60;15.87;;;8.70;99.90;;;;;;5032950;28;20357;-72
2024/03/13 06:37:23;;;;;;;23.67;16.13;;;8.70;99.90;;;;;;5033258;28;20220;-73
2024/03/13 06:39:50;;;;;;;20.63;16.00;;;8.80;99.90;;;;;;5033439;28;20215;-73
2024/03/13 06:42:17;;;;;;;21.97;17.23;;;8.80;99.90;;;;;;5032984;28;20294;-72
2024/03/13 06:44:44;;;;;;;22.60;17.17;;;8.80;99.90;;;;;;5039610;28;20213;-73
2024/03/13 06:47:12;;;;;;;23.83;17.33;;;8.80;99.90;;;;;;5052354;28;20203;-72
2024/03/13 06:49:39;;;;;;;21.33;16.97;;;8.80;99.90;;;;;;5052725;28;20203;-72
2024/03/13 06:52:06;;;;;;;22.30;17.53;;;8.80;99.90;;;;;;5052895;28;20254;-73
2024/03/13 06:54:33;;;;;;;26.30;18.07;;;8.70;99.90;;;;;;5052206;28;21080;-73
2024/03/13 06:57:00;;;;;;;22.00;17.17;;;8.70;99.90;;;;;;5052853;28;20217;-73
2024/03/13 06:59:28;;;;;;;21.83;17.30;;;8.70;99.90;;;;;;5050894;28;20286;-73
2024/03/13 07:01:56;;;;;;;25.23;18.27;;;8.70;99.90;;;;;;5048906;28;20211;-73
2024/03/13 07:04:23;;;;;;;23.73;17.87;;;8.80;99.90;;;;;;5032317;28;20753;-73
2024/03/13 07:06:56;;;;;;;28.17;18.27;;;8.80;99.90;;;;;;5032918;28;20207;-73
2024/03/13 07:09:24;;;;;;;26.87;18.93;;;8.80;99.90;;;;;;5034374;28;20198;-73
2024/03/13 07:11:51;;;;;;;26.13;18.20;;;8.90;99.90;;;;;;5032274;28;20203;-73
2024/03/13 07:14:18;;;;;;;22.60;17.43;;;8.90;99.90;;;;;;5032086;28;20338;-73
2024/03/13 07:16:45;;;;;;;26.90;17.83;;;8.90;99.90;;;;;;5032589;28;20276;-73
2024/03/13 07:19:13;;;;;;;23.93;17.47;;;9.00;99.90;;;;;;5032209;28;20203;-73
2024/03/13 07:21:40;;;;;;;23.77;17.93;;;9.00;99.90;;;;;;5032355;28;20214;-73
2024/03/13 07:24:07;;;;;;;21.27;16.97;;;9.00;99.90;;;;;;5047426;28;20230;-73
2024/03/13 07:26:34;;;;;;;24.40;17.70;;;9.10;99.90;;;;;;5051788;28;20294;-73
2024/03/13 07:29:01;;;;;;;25.07;17.90;;;9.10;99.90;;;;;;5052347;28;20298;-73
2024/03/13 07:31:29;;;;;;;26.37;18.53;;;9.20;99.90;;;;;;5052138;28;20288;-73
2024/03/13 07:33:56;;;;;;;24.90;19.10;;;9.20;99.90;;;;;;5052274;28;20665;-74
2024/03/13 07:36:23;;;;;;;24.47;19.00;;;9.30;99.90;;;;;;5052182;28;20578;-74
2024/03/13 07:38:50;;;;;;;24.67;18.50;;;9.40;99.90;;;;;;5052675;28;20287;-74
2024/03/13 07:41:17;;;;;;;25.70;18.27;;;9.40;99.90;;;;;;5051916;28;20206;-74
2024/03/13 07:43:45;;;;;;;26.47;19.23;;;9.50;99.90;;;;;;5052318;28;20297;-74
2024/03/13 07:46:12;;;;;;;28.97;19.07;;;9.60;99.90;;;;;;5052184;28;20217;-74
2024/03/13 07:48:39;;;;;;;23.57;17.77;;;9.60;99.90;;;;;;5052423;28;20238;-73
2024/03/13 07:51:06;;;;;;;22.73;18.37;;;9.70;99.90;;;;;;5052240;28;20325;-73
2024/03/13 07:53:33;;;;;;;26.53;18.50;;;9.70;99.90;;;;;;5051967;28;20589;-73
2024/03/13 07:56:00;;;;;;;24.97;18.67;;;9.80;99.90;;;;;;5051488;28;20234;-73
2024/03/13 07:58:27;;;;;;;28.00;19.27;;;9.80;99.90;;;;;;5052119;28;20696;-72
2024/03/13 08:00:54;;;;;;;28.30;20.67;;;9.90;99.90;;;;;;5051833;28;20376;-73
2024/03/13 08:03:21;;;;;;;27.53;20.27;;;9.90;99.90;;;;;;5052107;28;20203;-73
2024/03/13 08:05:48;;;;;;;25.67;18.40;;;10.00;99.90;;;;;;5052089;28;20314;-72
2024/03/13 08:08:15;;;;;;;45.53;20.87;;;10.10;99.90;;;;;;5051954;28;20202;-72
2024/03/13 08:10:42;;;;;;;25.37;19.67;;;10.00;99.90;;;;;;5051936;28;20294;-72
2024/03/13 08:13:10;;;;;;;30.70;19.43;;;10.20;99.90;;;;;;5052005;28;20235;-73
2024/03/13 08:15:37;;;;;;;28.53;19.93;;;10.20;99.90;;;;;;5052346;28;20237;-73
2024/03/13 08:18:05;;;;;;;27.77;18.90;;;10.30;99.90;;;;;;5052039;28;20293;-72
2024/03/13 08:20:32;;;;;;;26.67;20.20;;;10.40;99.90;;;;;;5051579;28;20214;-73
2024/03/13 08:22:59;;;;;;;24.73;19.67;;;10.50;99.90;;;;;;5048643;28;20615;-73
2024/03/13 08:25:26;;;;;;;25.30;19.43;;;10.60;99.90;;;;;;5031781;28;20250;-74
2024/03/13 08:27:53;;;;;;;28.53;20.10;;;10.60;99.90;;;;;;5031991;28;20264;-73
2024/03/13 08:30:20;;;;;;;28.70;20.23;;;10.70;99.90;;;;;;5031660;28;20290;-73
2024/03/13 08:32:48;;;;;;;31.53;21.40;;;10.70;99.90;;;;;;5034838;28;20203;-73
2024/03/13 08:35:15;;;;;;;27.43;20.33;;;10.80;99.90;;;;;;5051319;28;20227;-72
2024/03/13 08:37:42;;;;;;;26.60;19.77;;;10.90;99.90;;;;;;5042760;28;20200;-72
2024/03/13 08:40:11;;;;;;;27.30;19.60;;;11.00;99.90;;;;;;5051559;28;20288;-73
2024/03/13 08:42:39;;;;;;;27.23;20.43;;;11.00;99.90;;;;;;5055672;28;20265;-72
2024/03/13 08:45:08;;;;;;;34.37;19.53;;;11.10;99.90;;;;;;5055193;28;20245;-73
2024/03/13 08:47:35;;;;;;;28.30;20.80;;;11.20;99.90;;;;;;5055335;28;20639;-73
2024/03/13 08:50:03;;;;;;;27.60;19.23;;;11.20;99.90;;;;;;5055283;28;20211;-72
2024/03/13 08:52:30;;;;;;;26.90;20.57;;;11.30;99.90;;;;;;5053447;28;20530;-73
2024/03/13 08:54:57;;;;;;;23.73;19.13;;;11.30;99.90;;;;;;5054871;28;20234;-73
2024/03/13 08:57:28;;;;;;;22.17;17.70;;;11.40;99.90;;;;;;5054621;28;20317;-73
2024/03/13 08:59:57;;;;;;;24.93;19.70;;;11.40;99.90;;;;;;5056067;28;20361;-73
2024/03/13 09:02:24;;;;;;;23.57;18.97;;;11.50;99.90;;;;;;5055037;28;20268;-73
2024/03/13 09:04:53;;;;;;;24.50;18.43;;;11.60;99.90;;;;;;5055056;28;20210;-73
2024/03/13 09:07:22;;;;;;;24.07;18.60;;;11.70;99.90;;;;;;5054641;28;20210;-73
2024/03/13 09:09:49;;;;;;;23.23;17.10;;;11.70;99.90;;;;;;5055535;28;20557;-73
2024/03/13 09:12:18;;;;;;;28.60;16.93;;;11.80;99.90;;;;;;5053997;28;20926;-74
2024/03/13 09:14:45;;;;;;;20.53;16.50;;;11.80;99.90;;;;;;5051000;28;20239;-73
2024/03/13 09:17:12;;;;;;;23.40;17.03;;;11.90;99.90;;;;;;5051279;28;20214;-73
2024/03/13 09:19:41;;;;;;;22.90;17.87;;;12.00;99.90;;;;;;5051441;28;20210;-73
2024/03/13 09:22:11;;;;;;;22.37;16.93;;;12.00;99.90;;;;;;5051210;28;20207;-73
2024/03/13 09:24:43;;;;;;;21.10;17.00;;;12.10;99.90;;;;;;5051269;28;21009;-73
2024/03/13 09:27:10;;;;;;;23.27;16.97;;;12.20;99.90;;;;;;5050989;28;20288;-73
2024/03/13 09:29:37;;;;;;;22.83;16.60;;;12.20;99.90;;;;;;5051207;28;20211;-73
2024/03/13 09:32:04;;;;;;;22.10;16.33;;;12.30;99.90;;;;;;5050855;28;20314;-73
2024/03/13 09:34:32;;;;;;;20.70;16.30;;;12.30;99.90;;;;;;5050966;28;20215;-73
2024/03/13 09:36:59;;;;;;;21.70;16.57;;;12.40;99.90;;;;;;5051142;28;20294;-73
2024/03/13 09:39:26;;;;;;;23.37;16.03;;;12.50;99.90;;;;;;5050538;28;20216;-73
2024/03/13 09:41:54;;;;;;;22.50;16.33;;;12.50;99.90;;;;;;5050745;28;20721;-73
2024/03/13 09:44:21;;;;;;;23.50;17.13;;;12.60;99.90;;;;;;5050184;28;20273;-73
2024/03/13 09:46:48;;;;;;;22.07;16.33;;;12.60;99.90;;;;;;5050681;28;20266;-74
2024/03/13 09:49:15;;;;;;;18.73;14.87;;;12.70;99.90;;;;;;5045505;28;20232;-73
2024/03/13 09:51:43;;;;;;;24.13;15.63;;;12.80;99.90;;;;;;5030680;28;20316;-73
2024/03/13 09:54:11;;;;;;;20.30;16.23;;;12.80;99.90;;;;;;5046286;28;20211;-73
2024/03/13 09:56:39;;;;;;;21.07;16.37;;;12.90;99.90;;;;;;5050454;28;20231;-73
2024/03/13 09:59:06;;;;;;;23.00;16.00;;;13.00;99.90;;;;;;5050218;28;20211;-73
2024/03/13 10:01:35;;;;;;;18.33;15.43;;;13.00;99.90;;;;;;5050368;28;20322;-73
2024/03/13 10:04:10;;;;;;;22.10;16.23;;;13.10;99.90;;;;;;5050732;28;20226;-73
2024/03/13 10:06:37;;;;;;;19.87;16.50;;;13.30;99.90;;;;;;5051789;28;20195;-73
2024/03/13 10:09:09;;;;;;;22.53;16.43;;;13.40;99.90;;;;;;5050507;28;20210;-73
2024/03/13 10:11:35;;;;;;;22.10;16.57;;;13.40;99.90;;;;;;5050805;28;20192;-73
2024/03/13 10:14:02;;;;;;;18.07;14.60;;;13.60;99.90;;;;;;5050043;28;20670;-73
2024/03/13 10:16:29;;;;;;;19.63;15.77;;;13.60;99.90;;;;;;5049874;28;20691;-73
2024/03/13 10:18:57;;;;;;;20.50;15.77;;;13.70;99.90;;;;;;5050188;28;20766;-73
2024/03/13 10:21:24;;;;;;;19.63;15.90;;;13.80;99.90;;;;;;5050032;28;20217;-73
2024/03/13 10:23:51;;;;;;;19.43;15.07;;;13.90;99.90;;;;;;5037212;28;20294;-73
2024/03/13 10:26:20;;;;;;;21.87;15.27;;;13.90;99.90;;;;;;5029791;28;20306;-72
2024/03/13 10:28:47;;;;;;;18.47;15.23;;;13.90;99.90;;;;;;5030469;28;20216;-72
2024/03/13 10:31:15;;;;;;;17.60;14.07;;;14.00;99.90;;;;;;5029876;28;20270;-72
2024/03/13 10:33:42;;;;;;;15.93;13.43;;;14.10;99.90;;;;;;5029796;28;20204;-73
2024/03/13 10:36:11;;;;;;;17.30;14.03;;;14.20;99.90;;;;;;5029792;28;20651;-73
2024/03/13 10:38:38;;;;;;;18.00;14.67;;;14.20;99.90;;;;;;5030161;28;20300;-73
2024/03/13 10:41:05;;;;;;;15.13;12.70;;;14.30;99.90;;;;;;5029500;28;20701;-73
2024/03/13 10:43:32;;;;;;;17.67;13.90;;;14.40;99.90;;;;;;5029430;28;20302;-72
2024/03/13 10:45:59;;;;;;;15.80;13.23;;;14.50;99.90;;;;;;5029576;28;20212;-71
2024/03/13 10:48:26;;;;;;;16.60;13.20;;;14.50;99.90;;;;;;5029508;28;20261;-71
2024/03/13 10:50:55;;;;;;;15.77;13.20;;;14.70;99.90;;;;;;5029493;28;20293;-72
2024/03/13 10:53:22;;;;;;;16.57;14.13;;;14.70;99.90;;;;;;5039049;28;20207;-72
2024/03/13 10:55:49;;;;;;;16.00;13.07;;;14.70;99.90;;;;;;5048266;28;20235;-72
2024/03/13 10:58:19;;;;;;;18.00;13.87;;;14.50;99.90;;;;;;5049059;28;20212;-72
2024/03/13 11:00:47;;;;;;;19.27;14.07;;;14.30;99.90;;;;;;5049773;28;20207;-72
2024/03/13 11:03:14;;;;;;;16.57;13.53;;;14.00;99.90;;;;;;5049348;28;20294;-73
2024/03/13 11:05:41;;;;;;;15.67;13.27;;;13.80;99.90;;;;;;5049096;28;20264;-72
2024/03/13 11:08:08;;;;;;;17.30;13.13;;;13.80;99.90;;;;;;5049327;28;20208;-72
2024/03/13 11:10:35;;;;;;;14.80;12.43;;;13.70;99.90;;;;;;5049017;28;20288;-72
2024/03/13 11:13:04;;;;;;;16.37;12.77;;;13.70;99.90;;;;;;5050329;28;20207;-72
2024/03/13 11:15:31;;;;;;;16.43;13.10;;;13.90;99.90;;;;;;5052738;28;20338;-72
2024/03/13 11:17:59;;;;;;;17.60;13.93;;;13.90;99.90;;;;;;5052710;28;20234;-72
2024/03/13 11:20:26;;;;;;;16.90;14.27;;;13.90;99.90;;;;;;5052608;28;20263;-73
2024/03/13 11:22:54;;;;;;;16.47;14.33;;;14.00;99.90;;;;;;5047502;28;20215;-72
2024/03/13 11:25:21;;;;;;;18.50;14.50;;;14.00;99.90;;;;;;5034107;28;21113;-72
2024/03/13 11:27:51;;;;;;;18.13;13.57;;;14.00;99.90;;;;;;5052385;28;20206;-73
2024/03/13 11:30:21;;;;;;;15.40;13.80;;;14.00;99.90;;;;;;5052878;28;20211;-73
2024/03/13 11:32:48;;;;;;;16.10;13.47;;;14.20;99.90;;;;;;5032270;28;20298;-72
2024/03/13 11:35:16;;;;;;;15.87;13.63;;;14.40;99.90;;;;;;5032698;28;20211;-72
2024/03/13 11:37:44;;;;;;;14.80;12.57;;;14.40;99.90;;;;;;5032557;28;20661;-72
2024/03/13 11:40:11;;;;;;;14.20;12.57;;;14.50;99.90;;;;;;5034288;28;20199;-72
2024/03/13 11:42:40;;;;;;;15.00;12.23;;;14.50;99.90;;;;;;5051898;28;20298;-73
2024/03/13 11:45:19;;;;;;;12.90;10.87;;;14.60;99.90;;;;;;5052812;28;20207;-72
2024/03/13 11:47:47;;;;;;;13.63;11.70;;;14.90;99.90;;;;;;5054155;28;20306;-73
2024/03/13 11:50:14;;;;;;;12.43;11.13;;;15.10;99.90;;;;;;5052261;28;20666;-72
2024/03/13 11:53:06;;;;;;;12.33;11.03;;;15.20;99.90;;;;;;5051916;28;20215;-73
2024/03/13 11:55:33;;;;;;;13.73;11.13;;;15.30;99.90;;;;;;5068767;28;20651;-73
2024/03/13 11:58:06;;;;;;;12.00;10.80;;;15.40;99.90;;;;;;5052364;28;20210;-73
2024/03/13 12:00:33;;;;;;;11.80;10.67;;;15.50;99.90;;;;;;5052630;28;20206;-72
2024/03/13 12:03:01;;;;;;;13.77;10.70;;;15.70;99.90;;;;;;5052425;28;20214;-72
2024/03/13 12:05:35;;;;;;;12.97;11.67;;;15.80;99.90;;;;;;5052132;28;20218;-73
2024/03/13 12:08:03;;;;;;;12.70;11.40;;;15.80;99.90;;;;;;5057286;28;20189;-72
2024/03/13 12:10:30;;;;;;;12.73;10.27;;;15.80;99.90;;;;;;5056169;28;20272;-72
2024/03/13 12:12:57;;;;;;;13.03;10.00;;;15.80;99.90;;;;;;5055799;28;20635;-73
2024/03/13 12:15:24;;;;;;;12.57;11.33;;;15.90;99.90;;;;;;5055831;28;20213;-72
2024/03/13 12:17:55;;;;;;;13.37;12.07;;;15.90;99.90;;;;;;5056122;28;20207;-72
2024/03/13 12:20:24;;;;;;;13.47;12.07;;;16.00;99.90;;;;;;5056610;28;20223;-73
2024/03/13 12:22:51;;;;;;;13.50;12.13;;;16.10;99.90;;;;;;5056100;28;20218;-72
2024/03/13 12:25:19;;;;;;;13.07;11.77;;;16.00;99.90;;;;;;5055481;28;20357;-73
2024/03/13 12:27:45;;;;;;;13.23;11.03;;;16.00;99.90;;;;;;5045927;28;20210;-73
2024/03/13 12:30:13;;;;;;;12.03;10.83;;;16.00;99.90;;;;;;5035660;28;20204;-73
2024/03/13 12:32:40;;;;;;;12.53;11.23;;;15.90;99.90;;;;;;5035624;28;20548;-73
2024/03/13 12:35:08;;;;;;;12.47;11.27;;;15.90;99.90;;;;;;5035209;28;20210;-73
2024/03/13 12:37:36;;;;;;;12.10;10.90;;;16.00;99.90;;;;;;5042419;28;20242;-73
2024/03/13 12:40:08;;;;;;;12.40;11.07;;;16.00;99.90;;;;;;5035102;28;20215;-73
2024/03/13 12:42:38;;;;;;;13.77;12.40;;;16.00;99.90;;;;;;5036731;28;20290;-73
2024/03/13 12:45:10;;;;;;;12.63;11.33;;;16.00;99.90;;;;;;5035899;28;20212;-73
2024/03/13 12:47:38;;;;;;;13.30;11.57;;;16.00;99.90;;;;;;5036451;28;20196;-73
2024/03/13 12:50:06;;;;;;;14.80;11.93;;;16.00;99.90;;;;;;5035576;28;20207;-73
2024/03/13 12:52:35;;;;;;;13.47;11.43;;;16.00;99.90;;;;;;5037545;28;20286;-73